Bookmark and Share
Track history (hours):
 

Evelyn Maersk

Last reported at 2014-Apr-17 05:00 UTC. Time now 2014-Apr-17 09:46 UTC.
Position N 34°12' E 022°42'.

Length 398 m; draft 15.8 m.

Type: Cargo ship. MMSI: 220496000.

Waves 0.5 meters (2 feet), 1 second period

Barometer 1008.5 mb
Air temperature 18.5 ° C
Visibility: greater than 10.8 NM
Dewpoint 16.2 ° C
Water temperature 18.0 ° C

NotesDate/timePositionNaut miles runAvg speedWind from/ knotsBaromVisibWave heightAir tempDewpointWater temp
2014-Apr-17 05:00N 34°12' E 022°42'16515.0 1008.510.8 0.518.516.218.0
2014-Apr-16 18:00N 35°00' E 019°30'33615.6 1010.710.8 0.518.013.118.0
2014-Apr-15 20:25N 36°45' E 012°55'4715.4
2014-Apr-15 17:24N 37°03' E 012°02'1315.5
2014-Apr-15 16:33N 37°08' E 011°47'1515.3
2014-Apr-15 15:33N 37°14' E 011°29'2015.8
2014-Apr-15 14:17N 37°22' E 011°06'13 7.1
2014-Apr-15 12:31N 37°26' E 010°51'6215.4
2014-Apr-15 08:31N 37°28' E 009°34'32715.6
2014-Apr-14 11:33N 36°60' E 002°45'1616.0
2014-Apr-14 10:33N 36°57' E 002°25'1616.2
2014-Apr-14 09:33N 36°55' E 002°05'34514.4
2014-Apr-13 09:32N 36°01' W 004°58'1414.8
2014-Apr-13 08:33N 35°58' W 005°16'1211.6
2014-Apr-13 07:31N 35°54' W 005°30'0 0.1
2014-Apr-13 04:28N 35°53' W 005°30'0 0.0
2014-Apr-11 12:03N 35°53' W 005°30'0 0.0
2014-Apr-11 11:23N 35°53' W 005°30'3 2.5
2014-Apr-11 10:21N 35°55' W 005°32'1 0.9
2014-Apr-11 09:09N 35°55' W 005°33'3 4.7
2014-Apr-11 08:33N 35°55' W 005°37'9 9.1
2014-Apr-11 07:30N 35°54' W 005°48'7 7.4
2014-Apr-11 06:33N 35°54' W 005°57'6 5.8
2014-Apr-11 05:33N 35°54' W 006°04'9 7.6
2014-Apr-11 04:23N 35°54' W 006°15'40 8.0
2014-Apr-10 23:27N 36°04' W 007°02'8 9.5
2014-Apr-10 22:33N 36°07' W 007°12'2110.5
2014-Apr-10 20:31N 36°12' W 007°38'2110.6
2014-Apr-10 18:33N 36°17' W 008°03'10 9.9
2014-Apr-10 17:33N 36°20' W 008°15'10 9.9
2014-Apr-10 16:33N 36°23' W 008°27'10 9.7
2014-Apr-10 15:33N 36°25' W 008°38'10 9.6
2014-Apr-10 14:33N 36°28' W 008°50'10 9.5
2014-Apr-10 13:33N 36°30' W 009°01'29 9.6
2014-Apr-10 10:30N 36°47' W 009°31'4511.5
2014-Apr-10 06:33N 37°31' W 009°45'1211.9
2014-Apr-10 05:32N 37°43' W 009°48'1211.8
2014-Apr-10 04:32N 37°54' W 009°52'1211.8
2014-Apr-10 03:32N 38°06' W 009°55'1211.8
2014-Apr-10 02:33N 38°17' W 009°59'1511.7
2014-Apr-10 01:17N 38°31' W 010°04'2111.7
2014-Apr-09 23:28N 38°52' W 010°06'1211.9
2014-Apr-09 22:28N 39°04' W 010°06'  
2014-Apr-07 16:31N 50°09' W 002°14'1614.5
2014-Apr-07 15:26N 50°13' W 001°50'1213.8
2014-Apr-07 14:34N 50°16' W 001°32'1313.3
2014-Apr-07 13:34N 50°19' W 001°11'1413.5
2014-Apr-07 12:33N 50°23' W 000°51'1414.1
2014-Apr-07 11:33N 50°27' W 000°30'1515.0
2014-Apr-07 10:33N 50°31' W 000°07'1615.9
2014-Apr-07 09:33N 50°35' E 000°17'1615.9
2014-Apr-07 08:33N 50°41' E 000°40'1515.5
2014-Apr-07 07:33N 50°50' E 001°00'1514.6
2014-Apr-07 06:33N 50°59' E 001°18'1313.4
2014-Apr-07 05:33N 51°08' E 001°35'  

Dump ship's entire track history

sailing weather and tide predictions

Evelyn Maersk — OXHV2 — position and weather